Time;durP1;ratioP1;P1;durP2;ratioP2;P2;SDS_P1;SDS_P2;PMS_P1;PMS_P2;Temp;Humidity;BMP_temperature;BMP_pressure;BME280_temperature;BME280_humidity;BME280_pressure;Samples;Min_cycle;Max_cycle;Signal;HPM_P1;HPM_P2
2022/06/18 00:00:55;;;;;;;7.77;6.90;;;13.50;99.90;;;;;;6261881;22;20253;-96
2022/06/18 00:06:02;;;;;;;8.03;6.77;;;13.50;99.90;;;;;;6135242;22;20251;-96
2022/06/18 00:08:35;;;;;;;9.07;6.90;;;13.60;99.90;;;;;;6147555;23;20189;-96
2022/06/18 00:16:31;;;;;;;7.33;5.80;;;13.40;99.90;;;;;;6104449;22;20210;-96
2022/06/18 00:19:03;;;;;;;7.00;6.23;;;13.40;99.90;;;;;;6136180;22;20217;-94
2022/06/18 00:27:05;;;;;;;8.50;6.00;;;13.70;99.90;;;;;;6041540;22;20229;-93
2022/06/18 00:29:36;;;;;;;7.00;6.03;;;13.70;99.90;;;;;;6221820;23;20192;-91
2022/06/18 00:32:11;;;;;;;6.93;6.00;;;13.70;99.90;;;;;;6219380;23;20203;-95
2022/06/18 00:34:44;;;;;;;8.63;6.43;;;13.80;99.90;;;;;;6221162;23;20165;-92
2022/06/18 00:37:19;;;;;;;7.07;5.57;;;14.00;99.90;;;;;;6194312;23;20665;-96
2022/06/18 00:39:53;;;;;;;7.17;5.20;;;14.20;99.90;;;;;;6220959;23;20199;-96
2022/06/18 00:42:34;;;;;;;7.50;5.20;;;14.40;99.90;;;;;;6203767;23;20176;-94
2022/06/18 00:56:26;;;;;;;6.67;5.13;;;13.90;99.90;;;;;;6107420;23;20226;-96
2022/06/18 01:42:08;;;;;;;5.43;4.00;;;13.80;99.90;;;;;;6060800;23;20235;-92
2022/06/18 01:44:47;;;;;;;5.30;4.10;;;13.70;99.90;;;;;;6059792;23;20172;-96
2022/06/18 01:47:33;;;;;;;4.77;3.83;;;13.70;99.90;;;;;;6038555;23;20199;-91
2022/06/18 01:50:11;;;;;;;7.47;4.47;;;13.40;99.90;;;;;;6059659;23;20192;-93
2022/06/18 01:52:48;;;;;;;6.23;4.57;;;13.40;99.90;;;;;;6060481;23;20168;-91
2022/06/18 01:55:25;;;;;;;9.57;4.33;;;13.40;99.90;;;;;;6061013;23;20184;-96
2022/06/18 01:58:06;;;;;;;6.97;4.03;;;13.40;99.90;;;;;;6058625;23;20169;-94
2022/06/18 02:00:40;;;;;;;6.43;4.50;;;13.50;99.90;;;;;;6060272;23;20226;-93
2022/06/18 02:03:14;;;;;;;5.90;3.90;;;13.50;99.90;;;;;;6061050;23;20172;-92
2022/06/18 02:05:46;;;;;;;5.30;4.13;;;13.60;99.90;;;;;;6045352;23;20242;-93
2022/06/18 02:08:21;;;;;;;10.20;4.70;;;13.60;99.90;;;;;;6087320;23;20240;-86
2022/06/18 02:13:55;;;;;;;6.47;4.30;;;13.50;99.90;;;;;;6084939;23;20172;-88
2022/06/18 02:16:36;;;;;;;7.37;4.60;;;13.50;99.90;;;;;;6085635;23;20323;-91
2022/06/18 02:19:10;;;;;;;5.40;4.23;;;13.40;99.90;;;;;;6076001;23;20175;-94
2022/06/18 02:21:54;;;;;;;6.43;4.30;;;13.50;99.90;;;;;;6078730;23;20229;-91
2022/06/18 02:24:25;;;;;;;5.33;3.93;;;13.40;99.90;;;;;;6076469;23;20696;-90
2022/06/18 02:26:58;;;;;;;5.40;4.20;;;13.40;99.90;;;;;;6076617;23;20176;-91
2022/06/18 02:29:34;;;;;;;6.27;3.87;;;13.40;99.90;;;;;;6083782;23;20219;-91
2022/06/18 02:32:15;;;;;;;6.07;4.13;;;13.30;99.90;;;;;;6082175;23;20160;-89
2022/06/18 02:34:46;;;;;;;6.73;4.27;;;13.20;99.90;;;;;;6077743;23;20194;-88
2022/06/18 02:37:24;;;;;;;5.47;3.60;;;13.20;99.90;;;;;;6075597;23;20179;-90
2022/06/18 02:39:59;;;;;;;5.33;4.13;;;13.20;99.90;;;;;;6074934;23;20207;-88
2022/06/18 02:42:36;;;;;;;6.20;4.27;;;13.20;99.90;;;;;;6077453;23;20211;-89
2022/06/18 02:45:14;;;;;;;4.27;3.87;;;13.20;99.90;;;;;;6075949;23;20203;-94
2022/06/18 02:47:45;;;;;;;6.27;4.33;;;13.10;99.90;;;;;;6070083;23;20182;-90
2022/06/18 02:50:22;;;;;;;4.73;3.60;;;13.10;99.90;;;;;;6070089;23;20199;-90
2022/06/18 02:52:55;;;;;;;5.53;4.07;;;13.20;99.90;;;;;;6068108;23;20179;-89
2022/06/18 02:55:31;;;;;;;5.27;3.80;;;13.10;99.90;;;;;;6069259;23;20180;-90
2022/06/18 02:58:07;;;;;;;6.03;3.90;;;13.10;99.90;;;;;;6070687;23;20241;-89
2022/06/18 03:00:43;;;;;;;4.83;4.00;;;13.00;99.90;;;;;;6073008;23;20199;-93
2022/06/18 03:03:19;;;;;;;5.80;3.87;;;13.00;99.90;;;;;;6077488;23;20191;-92
2022/06/18 03:05:52;;;;;;;4.00;3.60;;;13.00;99.90;;;;;;6080691;23;20207;-91
2022/06/18 03:08:24;;;;;;;6.90;3.83;;;13.10;99.90;;;;;;6072737;23;20527;-92
2022/06/18 03:13:49;;;;;;;8.47;3.97;;;12.90;99.90;;;;;;6071640;23;20191;-91
2022/06/18 03:16:23;;;;;;;7.13;4.30;;;12.80;99.90;;;;;;6078411;23;20645;-91
2022/06/18 03:18:57;;;;;;;6.17;3.77;;;12.80;99.90;;;;;;6076081;23;20184;-93
2022/06/18 03:21:33;;;;;;;6.47;4.17;;;12.80;99.90;;;;;;6079478;23;20214;-92
2022/06/18 03:24:07;;;;;;;7.07;4.13;;;12.80;99.90;;;;;;6079045;23;20614;-92
2022/06/18 03:26:39;;;;;;;5.67;3.50;;;12.80;99.90;;;;;;6072533;23;20705;-94
2022/06/18 03:29:17;;;;;;;3.97;3.60;;;12.80;99.90;;;;;;6075262;23;20178;-91
2022/06/18 03:31:51;;;;;;;4.63;3.67;;;12.80;99.90;;;;;;6068837;23;20240;-91
2022/06/18 03:34:24;;;;;;;6.23;3.60;;;12.80;99.90;;;;;;6073877;23;20191;-93
2022/06/18 03:36:57;;;;;;;4.30;3.33;;;12.80;99.90;;;;;;6079299;23;20180;-93
2022/06/18 03:47:39;;;;;;;5.70;3.50;;;12.60;99.90;;;;;;6091163;22;20211;-96
2022/06/18 03:50:18;;;;;;;4.70;3.60;;;12.60;99.90;;;;;;6104228;22;20215;-96
2022/06/18 03:55:32;;;;;;;4.07;3.37;;;12.50;99.90;;;;;;6050892;22;20266;-89
2022/06/18 03:58:11;;;;;;;5.20;3.77;;;12.50;99.90;;;;;;6081588;23;20180;-92
2022/06/18 04:00:48;;;;;;;5.17;3.93;;;12.40;99.90;;;;;;6080806;23;20257;-95
2022/06/18 04:09:22;;;;;;;4.87;3.97;;;12.40;99.90;;;;;;6081434;23;20184;-92
2022/06/18 04:11:56;;;;;;;5.20;3.83;;;12.40;99.90;;;;;;6057898;23;20180;-92
2022/06/18 04:20:42;;;;;;;5.47;3.90;;;12.40;99.90;;;;;;6084854;23;20179;-91
2022/06/18 04:23:15;;;;;;;5.07;3.83;;;12.40;99.90;;;;;;6089644;23;20174;-95
2022/06/18 04:25:47;;;;;;;6.40;4.00;;;12.40;99.90;;;;;;6088890;23;20207;-95
2022/06/18 04:28:20;;;;;;;4.77;4.00;;;12.40;99.90;;;;;;6085798;23;20245;-94
2022/06/18 04:33:37;;;;;;;4.90;3.77;;;12.40;99.90;;;;;;6079859;23;20572;-96
2022/06/18 04:36:22;;;;;;;3.97;3.30;;;12.40;99.90;;;;;;6076138;23;20179;-94
2022/06/18 04:38:53;;;;;;;5.40;3.83;;;12.40;99.90;;;;;;6071450;23;20176;-92
2022/06/18 04:41:24;;;;;;;3.90;3.33;;;12.40;99.90;;;;;;6072324;23;20580;-96
2022/06/18 04:43:59;;;;;;;4.30;3.20;;;12.30;99.90;;;;;;6048604;23;20176;-95
2022/06/18 04:46:41;;;;;;;3.77;3.37;;;12.40;99.90;;;;;;6068421;23;20676;-95
2022/06/18 04:49:17;;;;;;;4.43;3.00;;;12.40;99.90;;;;;;6070375;23;20195;-91
2022/06/18 04:51:52;;;;;;;4.80;3.10;;;12.40;99.90;;;;;;6072297;23;20536;-96
2022/06/18 04:54:25;;;;;;;8.53;3.97;;;12.40;99.90;;;;;;6071305;22;20207;-96
2022/06/18 04:57:09;;;;;;;4.57;2.80;;;12.40;99.90;;;;;;6066222;22;20654;-95
2022/06/18 04:59:41;;;;;;;3.30;3.00;;;12.40;99.90;;;;;;6068090;23;20204;-94
2022/06/18 05:02:19;;;;;;;3.97;3.17;;;12.20;99.90;;;;;;6067903;23;20207;-95
2022/06/18 05:04:55;;;;;;;5.20;3.67;;;12.30;99.90;;;;;;6068339;23;20673;-96
2022/06/18 05:07:28;;;;;;;5.07;3.60;;;12.30;99.90;;;;;;6068503;23;20279;-95
2022/06/18 05:09:59;;;;;;;5.83;3.40;;;12.40;99.90;;;;;;6067880;23;20674;-95
2022/06/18 05:12:31;;;;;;;5.33;3.50;;;12.40;99.90;;;;;;6068415;23;20594;-95
2022/06/18 05:15:02;;;;;;;5.87;3.73;;;12.40;99.90;;;;;;6072700;23;20180;-96
2022/06/18 05:17:36;;;;;;;6.00;3.50;;;12.50;99.90;;;;;;6043049;23;20287;-96
2022/06/18 05:20:15;;;;;;;4.57;3.23;;;12.50;99.90;;;;;;6067526;23;20180;-96
2022/06/18 05:22:48;;;;;;;5.07;3.77;;;12.60;99.90;;;;;;6042938;23;20206;-96
2022/06/18 05:25:21;;;;;;;4.20;3.70;;;12.60;99.90;;;;;;6067970;23;20610;-95
2022/06/18 05:27:52;;;;;;;5.37;3.53;;;12.60;99.90;;;;;;6077394;23;20271;-96
2022/06/18 05:30:25;;;;;;;4.17;3.60;;;12.70;99.90;;;;;;6067726;23;20637;-96
2022/06/18 05:32:57;;;;;;;5.23;3.80;;;12.70;99.90;;;;;;6068733;23;20226;-96
2022/06/18 05:35:28;;;;;;;4.67;3.30;;;12.50;99.90;;;;;;6069068;23;20172;-96
2022/06/18 05:38:01;;;;;;;4.03;3.20;;;12.40;99.90;;;;;;6072809;23;20584;-96
2022/06/18 05:40:32;;;;;;;3.73;3.30;;;12.30;99.90;;;;;;6068349;23;20164;-96
2022/06/18 05:43:05;;;;;;;3.83;3.10;;;12.20;99.90;;;;;;6072319;23;20196;-96
2022/06/18 05:45:36;;;;;;;4.83;3.43;;;12.20;99.90;;;;;;6071952;23;20168;-96
2022/06/18 05:48:13;;;;;;;7.07;3.13;;;12.20;99.90;;;;;;6072510;23;20168;-96
2022/06/18 05:50:45;;;;;;;6.10;2.83;;;12.20;99.90;;;;;;6068131;23;20692;-96
2022/06/18 05:53:18;;;;;;;3.70;3.07;;;12.20;99.90;;;;;;6069123;23;20188;-96
2022/06/18 05:55:49;;;;;;;4.00;3.10;;;12.40;99.90;;;;;;6043152;23;20630;-96
2022/06/18 05:58:21;;;;;;;3.73;2.70;;;12.20;99.90;;;;;;6069744;23;20254;-96
2022/06/18 06:00:52;;;;;;;3.90;2.80;;;12.20;99.90;;;;;;6068168;23;20187;-96
2022/06/18 06:03:23;;;;;;;4.90;2.90;;;12.10;99.90;;;;;;6069247;23;20210;-96
2022/06/18 06:05:54;;;;;;;5.83;3.03;;;12.20;99.90;;;;;;6044884;23;20183;-95
2022/06/18 06:08:28;;;;;;;4.13;3.27;;;12.30;99.90;;;;;;6070550;23;20202;-96
2022/06/18 06:13:48;;;;;;;4.20;3.10;;;12.20;99.90;;;;;;6067880;23;20179;-95
2022/06/18 06:16:22;;;;;;;3.33;2.60;;;12.10;99.90;;;;;;6068554;23;20226;-96
2022/06/18 06:18:54;;;;;;;5.60;3.00;;;12.10;99.90;;;;;;6043821;23;20251;-96
2022/06/18 06:21:25;;;;;;;4.50;3.00;;;12.10;99.90;;;;;;6067666;23;20184;-96
2022/06/18 06:24:01;;;;;;;4.50;3.10;;;12.10;99.90;;;;;;6068395;23;20183;-96
2022/06/18 06:26:35;;;;;;;4.77;3.20;;;12.10;99.90;;;;;;6067412;23;20176;-96
2022/06/18 06:29:07;;;;;;;3.87;3.17;;;12.10;99.90;;;;;;6068417;23;20233;-96
2022/06/18 06:31:39;;;;;;;3.97;2.83;;;12.10;99.90;;;;;;6066634;23;20179;-96
2022/06/18 06:34:10;;;;;;;5.50;3.20;;;12.10;99.90;;;;;;6068591;23;20182;-96
2022/06/18 06:36:41;;;;;;;3.60;3.30;;;12.10;99.90;;;;;;6069033;23;20180;-95
2022/06/18 06:39:16;;;;;;;4.70;3.03;;;12.00;99.90;;;;;;6068346;23;20246;-95
2022/06/18 06:41:48;;;;;;;3.67;3.07;;;12.10;99.90;;;;;;6068511;23;20210;-95
2022/06/18 06:44:19;;;;;;;4.20;3.43;;;12.10;99.90;;;;;;6068407;23;20199;-94
2022/06/18 06:46:51;;;;;;;3.33;3.03;;;12.10;99.90;;;;;;6068647;23;20200;-94
2022/06/18 06:49:23;;;;;;;5.67;3.60;;;12.10;99.90;;;;;;6045573;23;20574;-96
2022/06/18 06:51:54;;;;;;;3.90;3.20;;;12.20;99.90;;;;;;6071720;23;20230;-95
2022/06/18 06:54:29;;;;;;;3.90;3.27;;;12.10;99.90;;;;;;6043540;23;20188;-94
2022/06/18 06:59:48;;;;;;;5.37;3.60;;;12.10;99.90;;;;;;6068858;23;20175;-96
2022/06/18 07:02:22;;;;;;;5.23;3.57;;;12.20;99.90;;;;;;6067994;23;20207;-95
2022/06/18 07:04:53;;;;;;;4.20;3.70;;;12.20;99.90;;;;;;6068888;23;20242;-95
2022/06/18 07:07:25;;;;;;;4.47;3.40;;;12.20;99.90;;;;;;6068692;23;20180;-94
2022/06/18 07:10:01;;;;;;;3.67;3.37;;;12.10;99.90;;;;;;6038984;23;20572;-95
2022/06/18 07:12:32;;;;;;;5.17;3.63;;;12.10;99.90;;;;;;6039699;23;20173;-95
2022/06/18 07:15:03;;;;;;;5.97;3.57;;;12.10;99.90;;;;;;6015220;23;20196;-93
2022/06/18 07:17:35;;;;;;;7.27;4.13;;;12.20;99.90;;;;;;6039118;23;20236;-94
2022/06/18 07:20:07;;;;;;;7.67;3.30;;;12.30;99.90;;;;;;6040218;23;20184;-94
2022/06/18 07:22:38;;;;;;;4.63;3.00;;;12.40;99.90;;;;;;6039473;23;20235;-94
2022/06/18 07:25:14;;;;;;;4.50;3.13;;;12.50;99.90;;;;;;6039631;23;20224;-95
2022/06/18 07:27:46;;;;;;;3.50;3.00;;;12.40;99.90;;;;;;6039887;23;20627;-95
2022/06/18 07:30:17;;;;;;;4.20;3.80;;;12.30;99.90;;;;;;6043090;23;20191;-94
2022/06/18 07:32:50;;;;;;;3.63;3.10;;;12.30;99.90;;;;;;6041861;23;20177;-94
2022/06/18 07:35:23;;;;;;;4.40;3.30;;;12.20;99.90;;;;;;6043479;23;20192;-95
2022/06/18 07:37:57;;;;;;;4.17;3.47;;;12.10;99.90;;;;;;6050979;23;20183;-96
2022/06/18 07:40:35;;;;;;;3.87;3.13;;;12.20;99.90;;;;;;6059283;23;20173;-94
2022/06/18 07:43:10;;;;;;;4.07;3.50;;;12.10;99.90;;;;;;6060594;23;20211;-93
2022/06/18 07:45:42;;;;;;;4.73;3.83;;;12.20;99.90;;;;;;6035440;23;20186;-95
2022/06/18 07:48:13;;;;;;;4.00;3.17;;;12.20;99.90;;;;;;6052816;23;20181;-94
2022/06/18 07:50:46;;;;;;;3.80;3.40;;;12.30;99.90;;;;;;6055759;23;20180;-95
2022/06/18 07:53:19;;;;;;;4.40;3.40;;;12.30;99.90;;;;;;6054571;23;20339;-94
2022/06/18 07:55:54;;;;;;;6.67;3.60;;;12.30;99.90;;;;;;6045603;23;20226;-93
2022/06/18 07:58:27;;;;;;;6.03;3.90;;;12.30;99.90;;;;;;6041165;23;20520;-95
2022/06/18 08:00:59;;;;;;;4.30;3.90;;;12.20;99.90;;;;;;6045766;23;20185;-96
2022/06/18 08:03:30;;;;;;;5.23;4.20;;;12.10;99.90;;;;;;6040807;23;20200;-94
2022/06/18 08:06:02;;;;;;;6.77;4.43;;;12.10;99.90;;;;;;6040441;23;20184;-95
2022/06/18 08:08:33;;;;;;;6.73;4.57;;;12.20;99.90;;;;;;6040876;23;20199;-95
2022/06/18 08:11:10;;;;;;;7.03;4.20;;;12.10;99.90;;;;;;6040095;23;20523;-94
2022/06/18 08:13:41;;;;;;;6.30;4.40;;;12.10;99.90;;;;;;6040183;23;20180;-94
2022/06/18 08:16:14;;;;;;;7.03;4.20;;;12.20;99.90;;;;;;6040253;23;20226;-94
2022/06/18 08:18:46;;;;;;;4.60;3.77;;;12.20;99.90;;;;;;6040274;23;20181;-95
2022/06/18 08:21:25;;;;;;;4.83;3.90;;;12.20;99.90;;;;;;6040109;23;20199;-94
2022/06/18 08:24:01;;;;;;;6.40;3.93;;;12.30;99.90;;;;;;6040569;23;20252;-94
2022/06/18 08:26:36;;;;;;;6.53;3.77;;;12.20;99.90;;;;;;6015463;23;20176;-94
2022/06/18 08:29:10;;;;;;;3.73;3.37;;;12.20;99.90;;;;;;6040379;23;20199;-93
2022/06/18 08:31:41;;;;;;;5.47;3.60;;;12.00;99.90;;;;;;6039319;23;20181;-94
2022/06/18 08:34:12;;;;;;;5.20;3.40;;;12.00;99.90;;;;;;6040557;23;20169;-94
2022/06/18 08:36:51;;;;;;;5.00;3.23;;;12.10;99.90;;;;;;6046768;23;20517;-93
2022/06/18 08:39:22;;;;;;;7.07;3.50;;;12.10;99.90;;;;;;6042022;23;20173;-95
2022/06/18 08:42:08;;;;;;;4.77;3.63;;;12.10;99.90;;;;;;6043514;23;20180;-95
2022/06/18 08:45:14;;;;;;;4.33;3.40;;;12.10;99.90;;;;;;6042341;23;20480;-95
2022/06/18 08:48:12;;;;;;;6.53;3.63;;;12.10;99.90;;;;;;5973513;23;20234;-95
2022/06/18 08:54:15;;;;;;;4.33;2.93;;;12.10;99.90;;;;;;6039770;23;20180;-95
2022/06/18 08:56:53;;;;;;;7.93;3.27;;;12.00;99.90;;;;;;6009283;23;20188;-96
2022/06/18 08:59:37;;;;;;;4.63;3.57;;;12.00;99.90;;;;;;6014978;23;20184;-96
2022/06/18 09:02:25;;;;;;;4.17;3.40;;;12.10;99.90;;;;;;6039500;23;20223;-96
2022/06/18 09:05:08;;;;;;;3.83;3.30;;;12.10;99.90;;;;;;6017084;23;20192;-95
2022/06/18 09:08:06;;;;;;;3.93;3.00;;;12.10;99.90;;;;;;6039311;23;20635;-96
2022/06/18 09:10:53;;;;;;;4.70;3.03;;;12.00;99.90;;;;;;6038929;23;20485;-95
2022/06/18 09:13:29;;;;;;;4.37;3.23;;;12.00;99.90;;;;;;6040027;23;20200;-96
2022/06/18 09:16:09;;;;;;;7.23;3.27;;;12.00;99.90;;;;;;6040993;23;20180;-95
2022/06/18 09:18:45;;;;;;;4.00;2.83;;;12.00;99.90;;;;;;6045501;23;20259;-95
2022/06/18 09:21:22;;;;;;;5.67;3.60;;;12.00;99.90;;;;;;6039786;23;20268;-95
2022/06/18 09:24:02;;;;;;;4.37;3.23;;;11.90;99.90;;;;;;6040200;23;20215;-96
2022/06/18 09:26:41;;;;;;;4.70;3.20;;;11.90;99.90;;;;;;6040361;23;20184;-95
2022/06/18 09:29:18;;;;;;;4.37;3.30;;;11.90;99.90;;;;;;6041703;23;20196;-94
2022/06/18 09:31:57;;;;;;;3.53;3.23;;;11.90;99.90;;;;;;6017207;23;20276;-95
2022/06/18 09:34:36;;;;;;;3.63;3.10;;;11.90;99.90;;;;;;6041618;23;20198;-94
2022/06/18 09:37:15;;;;;;;4.63;3.30;;;11.90;99.90;;;;;;6046398;23;20215;-94
2022/06/18 09:39:50;;;;;;;3.73;2.90;;;12.00;99.90;;;;;;6052177;23;20167;-93
2022/06/18 09:42:25;;;;;;;3.87;2.90;;;11.90;99.90;;;;;;6058799;23;20164;-93
2022/06/18 09:45:08;;;;;;;3.10;2.90;;;11.80;99.90;;;;;;6057088;23;20188;-94
2022/06/18 09:47:46;;;;;;;3.53;3.17;;;11.80;99.90;;;;;;6058027;23;20191;-95
2022/06/18 09:50:22;;;;;;;5.13;2.87;;;11.80;99.90;;;;;;6060610;23;20185;-94
2022/06/18 09:52:57;;;;;;;5.73;3.50;;;11.80;99.90;;;;;;6061316;23;20168;-94
2022/06/18 09:58:24;;;;;;;4.17;2.97;;;11.70;99.90;;;;;;6049007;23;20223;-96
2022/06/18 10:00:56;;;;;;;3.27;2.90;;;11.70;99.90;;;;;;6050105;23;20184;-96
2022/06/18 10:09:37;;;;;;;3.77;2.70;;;11.80;99.90;;;;;;6053708;23;20192;-96
2022/06/18 10:12:18;;;;;;;4.07;2.70;;;11.90;99.90;;;;;;6050283;23;20177;-96
2022/06/18 10:14:53;;;;;;;4.27;2.70;;;11.90;99.90;;;;;;6045634;23;20192;-96
2022/06/18 10:17:53;;;;;;;6.97;2.77;;;11.80;99.90;;;;;;6042438;23;20168;-96
2022/06/18 10:20:37;;;;;;;4.33;2.97;;;11.80;99.90;;;;;;6039766;23;20231;-95
2022/06/18 10:23:21;;;;;;;3.20;2.57;;;11.70;99.90;;;;;;6049650;23;20232;-96
2022/06/18 10:26:11;;;;;;;4.47;2.27;;;11.70;99.90;;;;;;6023642;23;20654;-96
2022/06/18 10:28:53;;;;;;;2.50;2.30;;;11.70;99.90;;;;;;6016436;23;20169;-95
2022/06/18 10:31:32;;;;;;;3.07;2.43;;;11.70;99.90;;;;;;6039329;23;20243;-96
2022/06/18 10:34:15;;;;;;;4.53;3.00;;;11.60;99.90;;;;;;6040766;23;20191;-95
2022/06/18 10:36:56;;;;;;;2.97;2.30;;;11.60;99.90;;;;;;6039581;23;20571;-94
2022/06/18 10:39:38;;;;;;;2.67;2.47;;;11.60;99.90;;;;;;5996488;23;20187;-95
2022/06/18 10:42:24;;;;;;;4.97;2.80;;;11.60;99.90;;;;;;6039209;23;20180;-94
2022/06/18 10:45:09;;;;;;;5.33;3.00;;;11.60;99.90;;;;;;6040076;23;20193;-95
2022/06/18 10:47:44;;;;;;;3.43;2.63;;;11.70;99.90;;;;;;6039695;23;20187;-95
2022/06/18 10:50:19;;;;;;;3.17;2.60;;;11.70;99.90;;;;;;6038962;23;20192;-95
2022/06/18 10:53:06;;;;;;;4.67;2.50;;;11.60;99.90;;;;;;6039561;23;20211;-95
2022/06/18 10:55:37;;;;;;;3.03;2.60;;;11.60;99.90;;;;;;6039866;23;20184;-96
2022/06/18 10:58:12;;;;;;;3.90;2.70;;;11.60;99.90;;;;;;6039811;23;20188;-96
2022/06/18 11:00:58;;;;;;;5.87;2.90;;;11.60;99.90;;;;;;6040686;23;20176;-96
2022/06/18 11:03:32;;;;;;;3.57;2.60;;;11.50;99.90;;;;;;6015989;23;20191;-95
2022/06/18 11:06:12;;;;;;;3.43;2.70;;;11.50;99.90;;;;;;6039481;23;20279;-96
2022/06/18 11:08:53;;;;;;;3.97;3.00;;;11.50;99.90;;;;;;6039916;23;20235;-94
2022/06/18 11:11:27;;;;;;;4.73;3.20;;;11.50;99.90;;;;;;6040346;23;20312;-96
2022/06/18 11:14:16;;;;;;;6.63;3.00;;;11.60;99.90;;;;;;6040767;23;20191;-96
2022/06/18 11:16:55;;;;;;;4.37;2.57;;;11.70;99.90;;;;;;6041714;23;20188;-95
2022/06/18 11:19:31;;;;;;;4.23;2.80;;;11.70;99.90;;;;;;6041944;23;20180;-96
2022/06/18 11:22:17;;;;;;;5.03;2.50;;;11.60;99.90;;;;;;6039921;23;20172;-96
2022/06/18 11:24:58;;;;;;;3.30;2.77;;;11.60;99.90;;;;;;6015833;23;20228;-94
2022/06/18 11:27:34;;;;;;;4.47;2.57;;;11.60;99.90;;;;;;6040767;23;20270;-94
2022/06/18 11:30:10;;;;;;;2.80;2.53;;;11.60;99.90;;;;;;6015270;23;20379;-94
2022/06/18 11:32:48;;;;;;;5.70;3.00;;;11.70;99.90;;;;;;6042943;23;20683;-94
2022/06/18 11:35:24;;;;;;;4.13;2.87;;;11.60;99.90;;;;;;6040441;23;20188;-93
2022/06/18 11:38:01;;;;;;;2.90;2.43;;;11.70;99.90;;;;;;6017754;23;20191;-95
2022/06/18 11:40:35;;;;;;;7.17;2.60;;;11.70;99.90;;;;;;6042064;23;20184;-96
2022/06/18 11:43:25;;;;;;;4.07;3.17;;;11.60;99.90;;;;;;6044045;23;20239;-96
2022/06/18 11:46:02;;;;;;;5.87;3.13;;;11.50;99.90;;;;;;6040927;23;20212;-96
2022/06/18 11:48:40;;;;;;;3.57;2.80;;;11.50;99.90;;;;;;6045207;23;20250;-96
2022/06/18 11:51:22;;;;;;;4.50;3.10;;;11.50;99.90;;;;;;6040632;23;20181;-96
2022/06/18 11:53:59;;;;;;;5.13;3.00;;;11.60;99.90;;;;;;6042045;23;20192;-95
2022/06/18 11:56:53;;;;;;;5.53;2.80;;;11.50;99.90;;;;;;6043386;23;20193;-95
2022/06/18 11:59:30;;;;;;;4.07;3.20;;;11.40;99.90;;;;;;6044762;23;20619;-96
2022/06/18 12:02:06;;;;;;;3.70;2.93;;;11.50;99.90;;;;;;6041612;23;20705;-96
2022/06/18 12:04:45;;;;;;;5.73;2.67;;;11.50;99.90;;;;;;6039387;23;20229;-96
2022/06/18 12:07:22;;;;;;;4.03;2.90;;;11.50;99.90;;;;;;6043699;23;20196;-96
2022/06/18 12:09:54;;;;;;;3.47;2.83;;;11.40;99.90;;;;;;6040810;23;20184;-96
2022/06/18 12:12:49;;;;;;;5.40;3.00;;;11.60;99.90;;;;;;6015892;23;20249;-96
2022/06/18 12:15:29;;;;;;;3.03;2.80;;;11.50;99.90;;;;;;6040277;23;20239;-96
2022/06/18 12:18:09;;;;;;;3.20;2.90;;;11.50;99.90;;;;;;6041063;23;20182;-96
2022/06/18 12:20:55;;;;;;;3.77;3.00;;;11.50;99.90;;;;;;6039591;23;20242;-96
2022/06/18 12:23:33;;;;;;;7.70;3.03;;;11.50;99.90;;;;;;6040832;23;20192;-96
2022/06/18 12:26:10;;;;;;;4.43;2.83;;;11.50;99.90;;;;;;6040776;23;20204;-96
2022/06/18 12:29:09;;;;;;;6.53;2.83;;;11.50;99.90;;;;;;6040959;23;20355;-95
2022/06/18 12:31:49;;;;;;;5.80;3.20;;;11.50;99.90;;;;;;6040779;23;20173;-95
2022/06/18 12:34:32;;;;;;;3.63;2.70;;;11.50;99.90;;;;;;6041055;23;20184;-95
2022/06/18 12:37:14;;;;;;;5.50;2.80;;;11.50;99.90;;;;;;6017232;23;20247;-96
2022/06/18 12:39:57;;;;;;;4.03;2.80;;;11.50;99.90;;;;;;6039623;23;20181;-95
2022/06/18 12:42:33;;;;;;;5.23;2.77;;;11.50;99.90;;;;;;6017268;23;20173;-96
2022/06/18 12:45:12;;;;;;;6.67;2.93;;;11.50;99.90;;;;;;6040213;23;20501;-96
2022/06/18 12:47:51;;;;;;;5.63;2.90;;;11.50;99.90;;;;;;6039913;23;20169;-96
2022/06/18 12:50:36;;;;;;;3.70;2.70;;;11.60;99.90;;;;;;6040444;23;20234;-96
2022/06/18 12:53:19;;;;;;;3.20;2.77;;;11.60;99.90;;;;;;6042307;23;20181;-95
2022/06/18 12:55:59;;;;;;;4.90;2.70;;;11.60;99.90;;;;;;6042119;23;20191;-95
2022/06/18 12:58:41;;;;;;;2.93;2.57;;;11.70;99.90;;;;;;6040484;23;20720;-96
2022/06/18 13:01:23;;;;;;;3.00;2.70;;;11.60;99.90;;;;;;6042662;23;20184;-96
2022/06/18 13:04:11;;;;;;;5.70;3.00;;;11.60;99.90;;;;;;6045452;23;20181;-96
2022/06/18 13:06:54;;;;;;;3.50;2.60;;;11.60;99.90;;;;;;6040761;23;20205;-96
2022/06/18 13:09:33;;;;;;;6.47;2.97;;;11.50;99.90;;;;;;6041429;23;20172;-96
2022/06/18 13:12:17;;;;;;;4.40;2.70;;;11.60;99.90;;;;;;6039651;23;20248;-96
2022/06/18 13:15:04;;;;;;;3.57;2.40;;;11.60;99.90;;;;;;6041350;23;20236;-96
2022/06/18 13:17:45;;;;;;;5.87;2.70;;;11.60;99.90;;;;;;6040476;23;20529;-96
2022/06/18 13:20:22;;;;;;;5.40;3.10;;;11.60;99.90;;;;;;6039818;23;20180;-96
2022/06/18 13:22:53;;;;;;;3.57;3.00;;;11.50;99.90;;;;;;6041341;23;20560;-95
2022/06/18 13:28:26;;;;;;;5.13;3.00;;;11.60;99.90;;;;;;6042247;23;20177;-96
2022/06/18 13:31:07;;;;;;;2.93;2.60;;;11.50;99.90;;;;;;6049053;23;20165;-96
2022/06/18 13:33:49;;;;;;;4.97;3.47;;;11.50;99.90;;;;;;6060233;23;20170;-96
2022/06/18 13:36:30;;;;;;;5.27;3.00;;;11.60;99.90;;;;;;6059774;23;20177;-95
2022/06/18 13:39:08;;;;;;;4.07;2.70;;;11.60;99.90;;;;;;6058738;23;20446;-95
2022/06/18 13:41:48;;;;;;;5.10;2.70;;;11.60;99.90;;;;;;6052079;23;20227;-95
2022/06/18 13:44:43;;;;;;;3.47;2.50;;;11.50;99.90;;;;;;6053480;23;20227;-96
2022/06/18 13:47:25;;;;;;;3.13;2.60;;;11.50;99.90;;;;;;6050268;23;20208;-95
2022/06/18 13:50:08;;;;;;;3.97;2.80;;;11.50;99.90;;;;;;6041328;23;20180;-96
2022/06/18 13:52:41;;;;;;;2.70;2.50;;;11.50;99.90;;;;;;6040487;23;20180;-96
2022/06/18 13:55:14;;;;;;;4.80;2.80;;;11.60;99.90;;;;;;6040566;23;20199;-95
2022/06/18 13:57:51;;;;;;;4.37;2.50;;;11.50;99.90;;;;;;6041154;23;20204;-96
2022/06/18 14:00:25;;;;;;;5.33;2.67;;;11.60;99.90;;;;;;6039615;23;20181;-96
2022/06/18 14:03:01;;;;;;;4.07;2.70;;;11.60;99.90;;;;;;6038705;23;20184;-95
2022/06/18 14:05:48;;;;;;;2.43;2.23;;;11.70;99.90;;;;;;6040145;23;20208;-96
2022/06/18 14:08:27;;;;;;;5.73;2.60;;;11.80;99.90;;;;;;6040955;23;20635;-95
2022/06/18 14:11:01;;;;;;;4.97;2.47;;;11.70;99.90;;;;;;6039041;23;20256;-96
2022/06/18 14:13:34;;;;;;;4.40;2.30;;;11.70;99.90;;;;;;6039474;23;20184;-96
2022/06/18 14:16:07;;;;;;;3.37;2.30;;;11.70;99.90;;;;;;6039460;23;20635;-95
2022/06/18 14:18:38;;;;;;;3.43;2.43;;;11.70;99.90;;;;;;6040251;23;20203;-95
2022/06/18 14:21:13;;;;;;;4.80;2.30;;;11.70;99.90;;;;;;6039876;23;20176;-95
2022/06/18 14:23:55;;;;;;;5.70;2.60;;;11.70;99.90;;;;;;6015030;23;20264;-95
2022/06/18 14:26:27;;;;;;;3.23;2.47;;;11.70;99.90;;;;;;6039544;23;20200;-95
2022/06/18 14:29:03;;;;;;;3.13;2.10;;;11.70;99.90;;;;;;6040762;23;20610;-96
2022/06/18 14:31:40;;;;;;;4.17;2.13;;;11.80;99.90;;;;;;6039553;23;20531;-96
2022/06/18 14:34:22;;;;;;;3.43;2.03;;;11.90;99.90;;;;;;6041231;23;20180;-95
2022/06/18 14:36:55;;;;;;;2.50;2.30;;;11.90;99.90;;;;;;6040665;23;20243;-95
2022/06/18 14:39:29;;;;;;;3.67;2.30;;;11.90;99.90;;;;;;6040820;23;20199;-95
2022/06/18 14:42:12;;;;;;;2.53;2.20;;;11.90;99.90;;;;;;6039145;23;20185;-94
2022/06/18 14:45:16;;;;;;;3.60;2.53;;;11.90;99.90;;;;;;6039940;23;20187;-93
2022/06/18 14:48:29;;;;;;;3.87;2.23;;;11.80;99.90;;;;;;6040354;23;20235;-94
2022/06/18 14:51:24;;;;;;;4.20;2.30;;;11.90;99.90;;;;;;6033809;23;20231;-93
2022/06/18 14:54:32;;;;;;;3.63;2.03;;;12.00;99.90;;;;;;6039188;23;20196;-94
2022/06/18 14:57:23;;;;;;;2.67;2.47;;;12.00;99.90;;;;;;6023242;23;20188;-94
2022/06/18 15:00:17;;;;;;;5.20;2.30;;;12.10;99.90;;;;;;6042894;23;20180;-94
2022/06/18 15:02:54;;;;;;;2.33;2.10;;;12.20;99.90;;;;;;6043429;23;20286;-93
2022/06/18 15:05:28;;;;;;;3.80;2.30;;;12.10;99.90;;;;;;6056522;23;20184;-92
2022/06/18 15:08:11;;;;;;;3.77;2.00;;;12.00;99.90;;;;;;6057846;23;20204;-95
2022/06/18 15:11:14;;;;;;;5.67;2.40;;;12.00;99.90;;;;;;6032768;23;20168;-91
2022/06/18 15:13:54;;;;;;;6.37;2.40;;;12.00;99.90;;;;;;6058279;23;20191;-95
2022/06/18 15:16:34;;;;;;;4.40;2.10;;;12.10;99.90;;;;;;6060631;23;20168;-96
2022/06/18 15:19:28;;;;;;;6.60;2.30;;;12.00;99.90;;;;;;6060424;23;20245;-95
2022/06/18 15:21:59;;;;;;;4.07;2.17;;;12.00;99.90;;;;;;6060162;23;20184;-95
2022/06/18 15:27:32;;;;;;;3.53;2.20;;;12.20;99.90;;;;;;6059051;23;20192;-95
2022/06/18 15:30:28;;;;;;;3.07;2.40;;;12.30;99.90;;;;;;6059463;23;20263;-94
2022/06/18 15:33:01;;;;;;;6.37;3.00;;;12.20;99.90;;;;;;6050254;23;20177;-96
2022/06/18 15:35:37;;;;;;;2.50;2.30;;;12.30;99.90;;;;;;6048240;23;20176;-96
2022/06/18 15:38:22;;;;;;;3.83;2.20;;;12.30;99.90;;;;;;6021619;23;20260;-96
2022/06/18 15:41:02;;;;;;;4.03;2.57;;;12.20;99.90;;;;;;6044630;23;20188;-95
2022/06/18 15:43:37;;;;;;;3.13;2.40;;;12.30;99.90;;;;;;6044074;23;20211;-94